Time;durP1;ratioP1;P1;durP2;ratioP2;P2;SDS_P1;SDS_P2;PMS_P1;PMS_P2;Temp;Humidity;BMP_temperature;BMP_pressure;BME280_temperature;BME280_humidity;BME280_pressure;Samples;Min_cycle;Max_cycle;Signal;HPM_P1;HPM_P2
2022/05/24 00:01:06;;;;;;;6.78;2.13;;;;;;;;;;4976026;28;20011;-75
2022/05/24 00:03:32;;;;;;;10.23;2.00;;;;;;;;;;4977915;28;20381;-75
2022/05/24 00:05:59;;;;;;;7.85;1.98;;;;;;;;;;4975712;28;20027;-75
2022/05/24 00:08:25;;;;;;;6.85;1.65;;;;;;;;;;4975627;28;20027;-76
2022/05/24 00:10:53;;;;;;;4.63;1.40;;;;;;;;;;4975797;28;20033;-75
2022/05/24 00:13:19;;;;;;;4.82;1.63;;;;;;;;;;4975302;28;20041;-75
2022/05/24 00:15:45;;;;;;;5.88;1.40;;;;;;;;;;4975280;28;20026;-76
2022/05/24 00:18:14;;;;;;;5.70;1.48;;;;;;;;;;4975083;28;20049;-75
2022/05/24 00:20:51;;;;;;;5.90;1.45;;;;;;;;;;4975373;28;20423;-76
2022/05/24 00:23:18;;;;;;;6.53;1.23;;;;;;;;;;4971813;28;20026;-75
2022/05/24 00:25:46;;;;;;;4.35;1.08;;;;;;;;;;4971041;28;20084;-76
2022/05/24 00:28:13;;;;;;;2.88;0.82;;;;;;;;;;4970836;28;20033;-76
2022/05/24 00:30:40;;;;;;;2.65;0.50;;;;;;;;;;4970546;28;20026;-76
2022/05/24 00:33:07;;;;;;;0.30;0.30;;;;;;;;;;4971589;28;20503;-76
2022/05/24 00:35:33;;;;;;;0.95;0.30;;;;;;;;;;4974002;28;20030;-76
2022/05/24 00:38:00;;;;;;;1.30;0.32;;;;;;;;;;4970866;28;20535;-76
2022/05/24 00:40:40;;;;;;;0.60;0.22;;;;;;;;;;4970607;28;20025;-76
2022/05/24 00:43:10;;;;;;;0.90;0.20;;;;;;;;;;4970273;28;20035;-76
2022/05/24 00:45:39;;;;;;;0.53;0.10;;;;;;;;;;4970606;28;20030;-76
2022/05/24 00:48:08;;;;;;;0.55;0.20;;;;;;;;;;4971589;28;20305;-76
2022/05/24 00:50:44;;;;;;;0.30;0.10;;;;;;;;;;4973583;28;20037;-75
2022/05/24 00:53:25;;;;;;;0.10;0.10;;;;;;;;;;4970849;28;20071;-76
2022/05/24 00:55:52;;;;;;;;;;;;;;;;;;4985435;28;20500;-76
2022/05/24 00:58:24;;;;;;;0.32;0.20;;;;;;;;;;4974450;28;19914;-76
2022/05/24 01:00:51;;;;;;;0.50;0.30;;;;;;;;;;4974117;28;20052;-75
2022/05/24 01:03:17;;;;;;;0.20;0.20;;;;;;;;;;4974256;28;20391;-76
2022/05/24 01:05:43;;;;;;;2.38;0.20;;;;;;;;;;4959084;28;20057;-76
2022/05/24 01:08:10;;;;;;;1.20;0.38;;;;;;;;;;4974875;28;20022;-76
2022/05/24 01:10:40;;;;;;;0.55;0.30;;;;;;;;;;4973612;28;20530;-76
2022/05/24 01:13:06;;;;;;;3.63;0.52;;;;;;;;;;4973937;28;20076;-75
2022/05/24 01:15:33;;;;;;;1.92;0.52;;;;;;;;;;4973857;28;20496;-76
2022/05/24 01:18:00;;;;;;;2.80;0.43;;;;;;;;;;4972860;28;20575;-75
2022/05/24 01:20:27;;;;;;;1.67;0.38;;;;;;;;;;4974281;28;20045;-75
2022/05/24 01:22:53;;;;;;;1.05;0.57;;;;;;;;;;4974600;28;20034;-76
2022/05/24 01:25:25;;;;;;;1.17;0.40;;;;;;;;;;4974360;28;20618;-76
2022/05/24 01:27:52;;;;;;;1.45;0.40;;;;;;;;;;4973874;28;20492;-76
2022/05/24 01:30:18;;;;;;;1.60;0.40;;;;;;;;;;4973635;28;20027;-75
2022/05/24 01:38:19;;;;;;;2.67;0.65;;;;;;;;;;4970645;28;20035;-76
2022/05/24 01:40:47;;;;;;;1.25;0.43;;;;;;;;;;4974193;28;20030;-75
2022/05/24 01:43:14;;;;;;;3.67;0.55;;;;;;;;;;4973649;28;20034;-75
2022/05/24 01:45:44;;;;;;;2.83;0.60;;;;;;;;;;4973251;28;20361;-75
2022/05/24 01:48:13;;;;;;;1.33;0.40;;;;;;;;;;4973388;28;20507;-76
2022/05/24 01:50:40;;;;;;;2.08;0.50;;;;;;;;;;4973363;28;20027;-75
2022/05/24 01:53:09;;;;;;;1.55;0.50;;;;;;;;;;4972907;28;20029;-76
2022/05/24 01:55:38;;;;;;;3.30;0.47;;;;;;;;;;4969311;28;20101;-76
2022/05/24 01:58:06;;;;;;;1.38;0.50;;;;;;;;;;4969092;28;20082;-75
2022/05/24 02:00:33;;;;;;;2.10;0.50;;;;;;;;;;4968591;28;20031;-75
2022/05/24 02:02:59;;;;;;;1.80;0.65;;;;;;;;;;4971499;28;20506;-75
2022/05/24 02:05:33;;;;;;;2.05;0.52;;;;;;;;;;4971159;28;20041;-76
2022/05/24 02:08:00;;;;;;;1.60;0.68;;;;;;;;;;4972057;28;20395;-75
2022/05/24 02:10:27;;;;;;;2.17;0.43;;;;;;;;;;4972954;28;20402;-75
2022/05/24 02:12:55;;;;;;;0.90;0.40;;;;;;;;;;4972982;28;20025;-75
2022/05/24 02:15:24;;;;;;;0.77;0.30;;;;;;;;;;4973189;28;20026;-76
2022/05/24 02:17:51;;;;;;;2.13;0.50;;;;;;;;;;4973222;28;20047;-75
2022/05/24 02:20:43;;;;;;;1.05;0.40;;;;;;;;;;4973445;28;20027;-75
2022/05/24 02:23:11;;;;;;;2.92;0.60;;;;;;;;;;4973429;28;20038;-76
2022/05/24 02:25:40;;;;;;;1.23;0.47;;;;;;;;;;4967458;28;20023;-75
2022/05/24 02:28:09;;;;;;;1.92;0.45;;;;;;;;;;4968048;28;20034;-76
2022/05/24 02:30:37;;;;;;;1.15;0.52;;;;;;;;;;4968516;28;20027;-75
2022/05/24 02:33:04;;;;;;;1.70;0.43;;;;;;;;;;4970398;28;20504;-76
2022/05/24 02:35:30;;;;;;;1.48;0.40;;;;;;;;;;4971578;28;20035;-75
2022/05/24 02:37:56;;;;;;;1.45;0.40;;;;;;;;;;4968886;28;20045;-76
2022/05/24 02:43:08;;;;;;;2.03;0.60;;;;;;;;;;4967941;28;20029;-76
2022/05/24 02:45:34;;;;;;;1.92;0.38;;;;;;;;;;4968327;28;20023;-75
2022/05/24 02:48:01;;;;;;;2.35;0.50;;;;;;;;;;4972440;28;20047;-76
2022/05/24 02:50:27;;;;;;;2.72;0.60;;;;;;;;;;4972789;28;20407;-75
2022/05/24 02:52:53;;;;;;;2.28;0.73;;;;;;;;;;4972802;28;20499;-75
2022/05/24 02:55:20;;;;;;;2.45;0.60;;;;;;;;;;4972324;28;20492;-76
2022/05/24 02:57:47;;;;;;;2.80;0.75;;;;;;;;;;4972111;28;20034;-76
2022/05/24 03:00:16;;;;;;;1.98;0.60;;;;;;;;;;4972792;28;20015;-75
2022/05/24 03:02:42;;;;;;;3.60;0.70;;;;;;;;;;4972378;28;20512;-76
2022/05/24 03:05:10;;;;;;;4.03;0.70;;;;;;;;;;4973280;28;20027;-75
2022/05/24 03:10:21;;;;;;;2.75;0.57;;;;;;;;;;4972330;28;20088;-76
2022/05/24 03:15:36;;;;;;;3.47;0.93;;;;;;;;;;4972231;28;20039;-76
2022/05/24 03:18:02;;;;;;;1.88;0.57;;;;;;;;;;4972225;28;20415;-76
2022/05/24 03:20:29;;;;;;;1.27;0.60;;;;;;;;;;4972270;28;20027;-75
2022/05/24 03:22:55;;;;;;;3.25;0.73;;;;;;;;;;4972729;28;20049;-75
2022/05/24 03:25:22;;;;;;;1.98;0.63;;;;;;;;;;4971976;28;20011;-76
2022/05/24 03:27:48;;;;;;;1.65;0.60;;;;;;;;;;4972305;28;20506;-75
2022/05/24 03:30:15;;;;;;;1.60;0.55;;;;;;;;;;4972413;28;20029;-76
2022/05/24 03:32:42;;;;;;;4.22;0.90;;;;;;;;;;4972064;28;20031;-75
2022/05/24 03:35:11;;;;;;;3.22;0.60;;;;;;;;;;4972757;28;20027;-75
2022/05/24 03:37:38;;;;;;;2.13;0.50;;;;;;;;;;4972264;28;20043;-75
2022/05/24 03:40:05;;;;;;;3.33;0.60;;;;;;;;;;4971810;28;20386;-75
2022/05/24 03:42:32;;;;;;;1.92;0.50;;;;;;;;;;4969994;28;20050;-75
2022/05/24 03:44:58;;;;;;;4.07;0.70;;;;;;;;;;4974205;28;20369;-75
2022/05/24 03:47:24;;;;;;;4.55;0.70;;;;;;;;;;4973069;28;20411;-76
2022/05/24 03:49:51;;;;;;;3.10;0.50;;;;;;;;;;4971769;28;20410;-76
2022/05/24 03:52:17;;;;;;;3.30;0.77;;;;;;;;;;4971391;28;20025;-75
2022/05/24 03:54:43;;;;;;;3.67;0.70;;;;;;;;;;4970822;28;20038;-75
2022/05/24 03:59:55;;;;;;;1.55;0.57;;;;;;;;;;4972958;28;20492;-75
2022/05/24 04:02:21;;;;;;;3.33;0.68;;;;;;;;;;4972540;28;20484;-76
2022/05/24 04:04:48;;;;;;;2.15;0.70;;;;;;;;;;4970762;28;20041;-75
2022/05/24 04:07:14;;;;;;;2.70;0.70;;;;;;;;;;4975317;28;20437;-75
2022/05/24 04:09:40;;;;;;;1.48;0.70;;;;;;;;;;4974777;28;20027;-75
2022/05/24 04:12:08;;;;;;;1.23;0.60;;;;;;;;;;4975158;28;20048;-75
2022/05/24 04:14:34;;;;;;;13.13;1.20;;;;;;;;;;4975383;28;20492;-75
2022/05/24 04:17:01;;;;;;;4.28;0.80;;;;;;;;;;4975638;28;20128;-76
2022/05/24 04:19:27;;;;;;;1.95;0.82;;;;;;;;;;4975461;28;20019;-75
2022/05/24 04:21:53;;;;;;;2.03;0.60;;;;;;;;;;4974990;28;20399;-75
2022/05/24 04:24:20;;;;;;;2.17;0.70;;;;;;;;;;4974884;28;20011;-76
2022/05/24 04:26:47;;;;;;;5.78;0.80;;;;;;;;;;4975468;28;20562;-75
2022/05/24 04:29:13;;;;;;;2.65;0.80;;;;;;;;;;4971682;28;20035;-75
2022/05/24 04:31:40;;;;;;;3.33;0.90;;;;;;;;;;4971228;28;20025;-75
2022/05/24 04:34:06;;;;;;;1.67;0.55;;;;;;;;;;4970797;28;20489;-75
2022/05/24 04:36:33;;;;;;;2.05;0.70;;;;;;;;;;4970665;28;20417;-75
2022/05/24 04:38:59;;;;;;;3.63;0.95;;;;;;;;;;4972961;28;20369;-75
2022/05/24 04:44:11;;;;;;;1.70;0.60;;;;;;;;;;4974936;28;20034;-75
2022/05/24 04:49:23;;;;;;;4.95;1.00;;;;;;;;;;4974501;28;20018;-76
2022/05/24 04:51:53;;;;;;;1.40;0.60;;;;;;;;;;4974372;28;20488;-75
2022/05/24 04:54:20;;;;;;;3.85;1.00;;;;;;;;;;4974382;28;20035;-75
2022/05/24 04:56:46;;;;;;;2.60;0.68;;;;;;;;;;4974625;28;20031;-75
2022/05/24 04:59:13;;;;;;;0.77;0.63;;;;;;;;;;4974846;28;20065;-75
2022/05/24 05:01:39;;;;;;;3.80;0.88;;;;;;;;;;4974263;28;20432;-75
2022/05/24 05:04:06;;;;;;;3.95;0.75;;;;;;;;;;4974431;28;20033;-75
2022/05/24 05:06:32;;;;;;;3.35;0.98;;;;;;;;;;4974630;28;20033;-75
2022/05/24 05:08:59;;;;;;;2.97;0.60;;;;;;;;;;4974074;28;20392;-76
2022/05/24 05:11:25;;;;;;;1.85;0.70;;;;;;;;;;4974305;28;20019;-76
2022/05/24 05:13:52;;;;;;;2.00;0.80;;;;;;;;;;4974438;28;20035;-75
2022/05/24 05:16:18;;;;;;;3.50;0.80;;;;;;;;;;4974071;28;20081;-75
2022/05/24 05:18:45;;;;;;;2.03;0.63;;;;;;;;;;4974263;28;20026;-76
2022/05/24 05:21:11;;;;;;;3.65;0.80;;;;;;;;;;4974002;28;20023;-76
2022/05/24 05:23:38;;;;;;;3.30;0.70;;;;;;;;;;4974400;28;20034;-75
2022/05/24 05:26:04;;;;;;;3.13;0.75;;;;;;;;;;4974373;28;20029;-75
2022/05/24 05:28:30;;;;;;;2.33;0.80;;;;;;;;;;4974080;28;20064;-75
2022/05/24 05:33:42;;;;;;;3.83;0.80;;;;;;;;;;4973779;28;20492;-75
2022/05/24 05:36:09;;;;;;;11.40;0.90;;;;;;;;;;4973511;28;20031;-75
2022/05/24 05:38:35;;;;;;;4.88;0.80;;;;;;;;;;4972788;28;20038;-76
2022/05/24 05:41:04;;;;;;;4.55;0.70;;;;;;;;;;4974563;28;20434;-75
2022/05/24 05:43:30;;;;;;;5.47;0.85;;;;;;;;;;4973337;28;20015;-75
2022/05/24 05:46:00;;;;;;;2.75;0.73;;;;;;;;;;4973332;28;20029;-75
2022/05/24 05:48:27;;;;;;;6.05;0.80;;;;;;;;;;4973578;28;20057;-75
2022/05/24 05:50:55;;;;;;;4.68;0.80;;;;;;;;;;4973307;28;20033;-76
2022/05/24 05:53:21;;;;;;;3.92;0.60;;;;;;;;;;4973622;28;20033;-75
2022/05/24 05:55:48;;;;;;;5.13;1.17;;;;;;;;;;4973736;28;20027;-75
2022/05/24 05:58:14;;;;;;;5.07;0.90;;;;;;;;;;4973229;28;20034;-75
2022/05/24 06:00:42;;;;;;;5.95;1.00;;;;;;;;;;4969004;28;20039;-75
2022/05/24 06:03:08;;;;;;;5.20;1.17;;;;;;;;;;4968322;28;20035;-75
2022/05/24 06:05:35;;;;;;;4.85;1.05;;;;;;;;;;4973024;28;20029;-75
2022/05/24 06:08:02;;;;;;;6.43;1.05;;;;;;;;;;4973630;28;20080;-75
2022/05/24 06:10:29;;;;;;;7.18;0.93;;;;;;;;;;4977104;28;20100;-76
2022/05/24 06:12:57;;;;;;;4.95;1.00;;;;;;;;;;4970132;28;20035;-76
2022/05/24 06:15:27;;;;;;;5.03;0.88;;;;;;;;;;4968397;28;20030;-76
2022/05/24 06:17:54;;;;;;;5.13;1.15;;;;;;;;;;4971602;28;20030;-76
2022/05/24 06:20:22;;;;;;;2.13;0.93;;;;;;;;;;4970014;28;20035;-76
2022/05/24 06:22:49;;;;;;;5.55;0.95;;;;;;;;;;4967720;28;20023;-76
2022/05/24 06:25:16;;;;;;;9.20;1.10;;;;;;;;;;4968205;28;20037;-76
2022/05/24 06:27:43;;;;;;;5.07;0.88;;;;;;;;;;4968236;28;20022;-76
2022/05/24 06:30:09;;;;;;;6.63;0.90;;;;;;;;;;4970301;28;20027;-76
2022/05/24 06:32:36;;;;;;;5.25;1.00;;;;;;;;;;4971858;28;20916;-76
2022/05/24 06:35:02;;;;;;;3.38;0.80;;;;;;;;;;4972492;28;20027;-77
2022/05/24 06:37:30;;;;;;;7.47;0.90;;;;;;;;;;4955093;28;20459;-76
2022/05/24 06:39:56;;;;;;;3.22;0.90;;;;;;;;;;4972521;28;20029;-75
2022/05/24 06:42:23;;;;;;;6.55;0.80;;;;;;;;;;4972580;28;20033;-76
2022/05/24 06:44:49;;;;;;;7.78;1.25;;;;;;;;;;4971658;28;20783;-76
2022/05/24 06:47:16;;;;;;;4.38;1.20;;;;;;;;;;4971293;28;20047;-76
2022/05/24 06:49:42;;;;;;;2.13;0.90;;;;;;;;;;4968295;28;20026;-76
2022/05/24 06:52:08;;;;;;;2.35;0.70;;;;;;;;;;4967668;28;20033;-76
2022/05/24 06:54:35;;;;;;;3.95;0.95;;;;;;;;;;4971936;28;20484;-76
2022/05/24 06:57:02;;;;;;;3.63;0.85;;;;;;;;;;4970226;28;20023;-76
2022/05/24 07:02:26;;;;;;;4.70;0.85;;;;;;;;;;4972979;28;20037;-76
2022/05/24 07:04:59;;;;;;;4.72;0.80;;;;;;;;;;4968100;28;20033;-76
2022/05/24 07:07:25;;;;;;;3.70;0.80;;;;;;;;;;4967513;28;20027;-76
2022/05/24 07:09:53;;;;;;;3.80;0.90;;;;;;;;;;4967587;28;20030;-76
2022/05/24 07:12:20;;;;;;;6.13;1.00;;;;;;;;;;4971168;28;20042;-76
2022/05/24 07:14:46;;;;;;;4.03;0.80;;;;;;;;;;4971728;28;20023;-76
2022/05/24 07:17:13;;;;;;;4.38;0.63;;;;;;;;;;4971878;28;20043;-75
2022/05/24 07:19:39;;;;;;;2.38;0.80;;;;;;;;;;4971470;28;20073;-76
2022/05/24 07:22:06;;;;;;;2.78;0.90;;;;;;;;;;4975821;28;20053;-76
2022/05/24 07:24:33;;;;;;;3.53;0.80;;;;;;;;;;4975829;28;20042;-76
2022/05/24 07:27:00;;;;;;;4.00;0.90;;;;;;;;;;4975990;28;20027;-76
2022/05/24 07:29:26;;;;;;;2.70;0.70;;;;;;;;;;4975237;28;20407;-75
2022/05/24 07:31:53;;;;;;;3.60;1.00;;;;;;;;;;4975363;28;20039;-76
2022/05/24 07:34:20;;;;;;;3.95;0.68;;;;;;;;;;4971144;28;20022;-76
2022/05/24 07:36:46;;;;;;;5.00;0.90;;;;;;;;;;4971305;28;20041;-75
2022/05/24 07:39:14;;;;;;;1.95;0.68;;;;;;;;;;4971567;28;20038;-75
2022/05/24 07:47:36;;;;;;;3.42;0.80;;;;;;;;;;4953605;28;20050;-75
2022/05/24 07:50:04;;;;;;;2.65;0.70;;;;;;;;;;4954183;29;20047;-75
2022/05/24 07:52:30;;;;;;;2.75;0.50;;;;;;;;;;4955023;28;20512;-75
2022/05/24 07:54:56;;;;;;;2.33;0.52;;;;;;;;;;4955189;28;20042;-75
2022/05/24 07:57:23;;;;;;;4.68;0.57;;;;;;;;;;4955016;28;20057;-76
2022/05/24 07:59:49;;;;;;;1.00;0.50;;;;;;;;;;4956739;28;20070;-75
2022/05/24 08:02:17;;;;;;;2.17;0.75;;;;;;;;;;4950616;28;20051;-75
2022/05/24 08:04:44;;;;;;;1.73;0.55;;;;;;;;;;4953356;28;20043;-75
2022/05/24 08:07:10;;;;;;;5.35;0.60;;;;;;;;;;4954164;28;20037;-76
2022/05/24 08:09:37;;;;;;;5.25;0.60;;;;;;;;;;4953820;28;20119;-75
2022/05/24 08:12:04;;;;;;;2.65;0.50;;;;;;;;;;4952332;28;20038;-75
2022/05/24 08:14:30;;;;;;;6.55;0.70;;;;;;;;;;4938109;28;20031;-75
2022/05/24 08:16:57;;;;;;;5.65;0.80;;;;;;;;;;4952393;29;20453;-75
2022/05/24 08:19:23;;;;;;;2.20;0.50;;;;;;;;;;4953490;28;20027;-74
2022/05/24 08:21:49;;;;;;;2.03;0.80;;;;;;;;;;4953288;28;20027;-73
2022/05/24 08:24:16;;;;;;;1.67;0.60;;;;;;;;;;4972320;28;20522;-74
2022/05/24 08:26:55;;;;;;;7.22;0.82;;;;;;;;;;4972202;28;20065;-75
2022/05/24 08:29:21;;;;;;;15.10;1.58;;;;;;;;;;4971086;28;20484;-75
2022/05/24 08:31:48;;;;;;;1.88;0.70;;;;;;;;;;4969168;28;20027;-75
2022/05/24 08:34:14;;;;;;;4.18;1.00;;;;;;;;;;4972217;28;20033;-75
2022/05/24 08:36:41;;;;;;;9.38;0.90;;;;;;;;;;4969528;28;20033;-75
2022/05/24 08:39:07;;;;;;;5.97;0.80;;;;;;;;;;4973649;28;20060;-75
2022/05/24 08:41:33;;;;;;;2.30;0.50;;;;;;;;;;4973434;28;20041;-75
2022/05/24 08:50:05;;;;;;;2.28;0.70;;;;;;;;;;4931724;29;20034;-75
2022/05/24 08:52:36;;;;;;;2.75;0.70;;;;;;;;;;4933741;29;20035;-74
2022/05/24 08:55:03;;;;;;;3.00;0.55;;;;;;;;;;4933603;29;20043;-74
2022/05/24 08:57:32;;;;;;;1.27;0.57;;;;;;;;;;4933705;29;20513;-75
2022/05/24 09:00:08;;;;;;;4.43;0.57;;;;;;;;;;4933272;29;20039;-75
2022/05/24 09:02:35;;;;;;;2.60;0.73;;;;;;;;;;4933518;29;20122;-75
2022/05/24 09:05:02;;;;;;;1.85;0.60;;;;;;;;;;4932797;29;20378;-75
2022/05/24 09:07:40;;;;;;;3.20;0.80;;;;;;;;;;4933242;29;20047;-75
2022/05/24 09:10:13;;;;;;;2.13;0.60;;;;;;;;;;4933625;29;20024;-75
2022/05/24 09:12:45;;;;;;;1.77;0.52;;;;;;;;;;4933204;29;20050;-75
2022/05/24 09:15:36;;;;;;;2.00;0.60;;;;;;;;;;4932915;29;20400;-75
2022/05/24 09:18:03;;;;;;;1.67;0.68;;;;;;;;;;4920394;29;20042;-74
2022/05/24 09:20:34;;;;;;;16.90;1.17;;;;;;;;;;4933605;28;20049;-75
2022/05/24 09:23:09;;;;;;;7.90;1.05;;;;;;;;;;4976831;28;20034;-75
2022/05/24 09:25:35;;;;;;;5.55;0.90;;;;;;;;;;4970226;28;20506;-75
2022/05/24 09:28:02;;;;;;;5.50;0.80;;;;;;;;;;4973478;28;20033;-75
2022/05/24 09:30:31;;;;;;;1.90;0.73;;;;;;;;;;4968064;28;20492;-75
2022/05/24 09:33:16;;;;;;;5.07;0.80;;;;;;;;;;4971116;28;20030;-75
2022/05/24 09:35:42;;;;;;;1.00;0.52;;;;;;;;;;4970951;28;20041;-75
2022/05/24 09:38:13;;;;;;;2.53;0.80;;;;;;;;;;4967694;28;20038;-75
2022/05/24 09:40:54;;;;;;;2.45;0.70;;;;;;;;;;4968442;28;20054;-75
2022/05/24 09:43:40;;;;;;;5.22;0.80;;;;;;;;;;4967614;28;20038;-75
2022/05/24 09:46:09;;;;;;;13.05;0.80;;;;;;;;;;4969326;28;20039;-76
2022/05/24 09:48:38;;;;;;;2.17;0.70;;;;;;;;;;4970024;28;20039;-76
2022/05/24 09:51:09;;;;;;;1.92;0.70;;;;;;;;;;4970124;28;20404;-75
2022/05/24 09:53:46;;;;;;;1.67;0.93;;;;;;;;;;4970930;28;20105;-75
2022/05/24 09:56:24;;;;;;;1.65;0.90;;;;;;;;;;4972265;28;20026;-75
2022/05/24 09:58:59;;;;;;;4.75;0.90;;;;;;;;;;4967541;28;20057;-76
2022/05/24 10:01:35;;;;;;;2.67;0.80;;;;;;;;;;4968362;28;20026;-75
2022/05/24 10:04:13;;;;;;;2.75;0.50;;;;;;;;;;4962790;28;20073;-75
2022/05/24 10:06:41;;;;;;;5.68;0.70;;;;;;;;;;4967836;28;20407;-75
2022/05/24 10:09:20;;;;;;;2.60;0.70;;;;;;;;;;4969495;28;20039;-75
2022/05/24 10:12:05;;;;;;;0.95;0.50;;;;;;;;;;4956771;28;20030;-74
2022/05/24 10:14:44;;;;;;;5.57;0.75;;;;;;;;;;4985754;28;20030;-75
2022/05/24 10:17:25;;;;;;;2.20;0.80;;;;;;;;;;4972347;28;20034;-75
2022/05/24 10:19:58;;;;;;;1.65;0.80;;;;;;;;;;4971515;28;20502;-75
2022/05/24 10:22:43;;;;;;;2.60;0.77;;;;;;;;;;4971809;28;20019;-75
2022/05/24 10:25:22;;;;;;;5.20;0.95;;;;;;;;;;4972124;28;20022;-76
2022/05/24 10:28:10;;;;;;;2.42;0.50;;;;;;;;;;4971294;28;20092;-75
2022/05/24 10:30:45;;;;;;;4.32;0.82;;;;;;;;;;4971489;28;20504;-76
2022/05/24 10:39:31;;;;;;;7.45;0.88;;;;;;;;;;4957062;28;20037;-75
2022/05/24 10:41:58;;;;;;;4.63;0.75;;;;;;;;;;4956398;28;20023;-75
2022/05/24 10:44:43;;;;;;;0.90;0.57;;;;;;;;;;4968928;28;20023;-74
2022/05/24 10:47:29;;;;;;;4.07;0.47;;;;;;;;;;4972400;28;20039;-75
2022/05/24 10:50:01;;;;;;;4.72;0.77;;;;;;;;;;4966038;28;20217;-75
2022/05/24 10:52:47;;;;;;;2.22;0.80;;;;;;;;;;4970184;28;20050;-75
2022/05/24 10:55:20;;;;;;;6.07;0.75;;;;;;;;;;4965508;28;20042;-75
2022/05/24 10:57:53;;;;;;;3.10;0.70;;;;;;;;;;4964990;28;20042;-75
2022/05/24 11:00:23;;;;;;;2.55;0.60;;;;;;;;;;4970422;28;20046;-76
2022/05/24 11:02:54;;;;;;;1.73;0.50;;;;;;;;;;4969608;28;20035;-75
2022/05/24 11:05:25;;;;;;;5.82;0.70;;;;;;;;;;4969583;28;20538;-76
2022/05/24 11:07:57;;;;;;;1.90;0.50;;;;;;;;;;4969186;28;20047;-76
2022/05/24 11:10:28;;;;;;;5.35;0.80;;;;;;;;;;4957064;28;20015;-76
2022/05/24 11:12:56;;;;;;;3.42;0.50;;;;;;;;;;4964715;28;20031;-73
2022/05/24 11:15:23;;;;;;;1.08;0.50;;;;;;;;;;4969249;28;20377;-74
2022/05/24 11:17:49;;;;;;;5.45;0.80;;;;;;;;;;4952799;28;20034;-74
2022/05/24 11:20:22;;;;;;;7.25;1.13;;;;;;;;;;4965823;28;20593;-73
2022/05/24 11:23:02;;;;;;;7.07;1.15;;;;;;;;;;4946833;28;20036;-73
2022/05/24 11:25:31;;;;;;;16.67;1.10;;;;;;;;;;4964663;28;20041;-73
2022/05/24 11:28:01;;;;;;;7.05;0.90;;;;;;;;;;4971332;28;20043;-73
2022/05/24 11:30:30;;;;;;;2.33;0.70;;;;;;;;;;4971598;28;20029;-74
2022/05/24 11:33:03;;;;;;;3.20;0.70;;;;;;;;;;4971236;28;20037;-73
2022/05/24 11:35:35;;;;;;;0.95;0.50;;;;;;;;;;4971064;28;20459;-74
2022/05/24 11:38:16;;;;;;;1.13;0.40;;;;;;;;;;4977566;28;20038;-73
2022/05/24 11:40:55;;;;;;;4.35;0.50;;;;;;;;;;4969580;28;20033;-77
2022/05/24 11:43:36;;;;;;;5.60;0.57;;;;;;;;;;4970956;28;20031;-75
2022/05/24 11:46:04;;;;;;;7.03;1.25;;;;;;;;;;4966318;28;20027;-76
2022/05/24 11:48:40;;;;;;;11.07;1.17;;;;;;;;;;4970011;28;20039;-72
2022/05/24 11:51:25;;;;;;;2.92;0.60;;;;;;;;;;4968502;28;20029;-75
2022/05/24 11:53:51;;;;;;;1.00;0.60;;;;;;;;;;4955126;28;20073;-75
2022/05/24 11:56:19;;;;;;;4.32;0.60;;;;;;;;;;4969722;28;20439;-75
2022/05/24 11:58:47;;;;;;;7.13;1.10;;;;;;;;;;4971101;28;20039;-76
2022/05/24 12:01:19;;;;;;;9.75;0.90;;;;;;;;;;4969403;28;20023;-75
2022/05/24 12:10:12;;;;;;;5.38;0.75;;;;;;;;;;4969376;28;20031;-76
2022/05/24 12:12:45;;;;;;;3.35;0.60;;;;;;;;;;4960680;28;20416;-76
2022/05/24 12:15:24;;;;;;;4.68;0.95;;;;;;;;;;4973286;28;20396;-76
2022/05/24 12:18:11;;;;;;;5.45;0.95;;;;;;;;;;4963245;28;20053;-76
2022/05/24 12:20:38;;;;;;;4.95;0.98;;;;;;;;;;4968941;28;20039;-75
2022/05/24 12:23:07;;;;;;;2.15;0.93;;;;;;;;;;4965684;28;20050;-75
2022/05/24 12:25:52;;;;;;;4.00;0.55;;;;;;;;;;4966401;28;20407;-76
2022/05/24 12:28:20;;;;;;;3.00;0.50;;;;;;;;;;4966907;28;20026;-76
2022/05/24 12:30:48;;;;;;;4.47;0.70;;;;;;;;;;4963159;28;20097;-76
2022/05/24 12:33:23;;;;;;;1.98;0.60;;;;;;;;;;4961161;28;20029;-76
2022/05/24 12:35:59;;;;;;;1.88;0.70;;;;;;;;;;4970029;28;20492;-75
2022/05/24 12:38:30;;;;;;;4.00;0.70;;;;;;;;;;4982367;28;20116;-75
2022/05/24 12:41:14;;;;;;;3.55;0.70;;;;;;;;;;4959715;28;20386;-75
2022/05/24 12:43:51;;;;;;;7.65;0.82;;;;;;;;;;4969076;28;20544;-75
2022/05/24 12:46:17;;;;;;;5.72;0.63;;;;;;;;;;4965890;28;20026;-75
2022/05/24 12:48:44;;;;;;;3.00;0.60;;;;;;;;;;4967986;28;20086;-75
2022/05/24 12:51:11;;;;;;;2.40;0.55;;;;;;;;;;4963541;28;20034;-75
2022/05/24 12:53:38;;;;;;;5.95;0.70;;;;;;;;;;4962660;28;20083;-74
2022/05/24 12:56:08;;;;;;;2.80;0.60;;;;;;;;;;4967330;28;20031;-75
2022/05/24 12:58:34;;;;;;;1.63;0.50;;;;;;;;;;4955976;28;20431;-75
2022/05/24 13:01:16;;;;;;;2.08;0.60;;;;;;;;;;4953563;28;20023;-75
2022/05/24 13:03:47;;;;;;;2.65;0.50;;;;;;;;;;4951813;28;20027;-75
2022/05/24 13:06:25;;;;;;;2.65;0.50;;;;;;;;;;4947317;29;20023;-75
2022/05/24 13:09:09;;;;;;;1.27;0.40;;;;;;;;;;4953162;28;20024;-74
2022/05/24 13:11:36;;;;;;;1.02;0.50;;;;;;;;;;4952317;29;20514;-75
2022/05/24 13:14:03;;;;;;;5.00;0.55;;;;;;;;;;4955869;28;20041;-75
2022/05/24 13:16:30;;;;;;;1.38;0.82;;;;;;;;;;4948154;28;20035;-74
2022/05/24 13:18:57;;;;;;;2.55;0.80;;;;;;;;;;4949589;28;20037;-74
2022/05/24 13:21:24;;;;;;;1.40;0.50;;;;;;;;;;4951846;28;20023;-74
2022/05/24 13:24:05;;;;;;;3.33;0.85;;;;;;;;;;4951758;29;20027;-74
2022/05/24 13:26:32;;;;;;;2.13;0.60;;;;;;;;;;4953172;28;20027;-74
2022/05/24 13:29:18;;;;;;;3.17;0.57;;;;;;;;;;4950943;28;20064;-74
2022/05/24 13:34:32;;;;;;;3.25;0.75;;;;;;;;;;4952412;29;20041;-74
2022/05/24 13:37:04;;;;;;;1.63;0.47;;;;;;;;;;4951879;28;20031;-75
2022/05/24 13:39:47;;;;;;;3.90;1.23;;;;;;;;;;4950567;28;20026;-73
2022/05/24 13:42:30;;;;;;;4.72;0.77;;;;;;;;;;4951691;29;20025;-73
2022/05/24 13:45:17;;;;;;;2.42;0.70;;;;;;;;;;4941960;29;20038;-75
2022/05/24 13:47:47;;;;;;;3.30;0.68;;;;;;;;;;4966021;28;20043;-74
2022/05/24 13:50:22;;;;;;;2.03;0.70;;;;;;;;;;4966579;28;20031;-74
2022/05/24 13:52:55;;;;;;;3.75;0.60;;;;;;;;;;4973009;28;20034;-73
2022/05/24 13:55:23;;;;;;;5.10;0.60;;;;;;;;;;4971424;28;20041;-74
2022/05/24 13:57:54;;;;;;;3.38;0.93;;;;;;;;;;4966130;28;20030;-74
2022/05/24 14:00:24;;;;;;;2.90;0.73;;;;;;;;;;4971541;28;20035;-74
2022/05/24 14:03:07;;;;;;;1.30;0.47;;;;;;;;;;4969144;28;20035;-75
2022/05/24 14:05:34;;;;;;;4.18;0.70;;;;;;;;;;4971294;28;20037;-75
2022/05/24 14:08:01;;;;;;;4.65;0.60;;;;;;;;;;4971380;28;20034;-74
2022/05/24 14:10:28;;;;;;;1.45;0.60;;;;;;;;;;4971139;28;20019;-74
2022/05/24 14:12:55;;;;;;;4.97;0.90;;;;;;;;;;4970828;28;20035;-73
2022/05/24 14:15:22;;;;;;;3.75;1.00;;;;;;;;;;4966093;28;20043;-76
2022/05/24 14:17:50;;;;;;;0.82;0.60;;;;;;;;;;4969795;28;20035;-75
2022/05/24 14:20:17;;;;;;;4.15;0.93;;;;;;;;;;4983154;28;20108;-75
2022/05/24 14:22:44;;;;;;;3.25;0.80;;;;;;;;;;4968946;28;20053;-74
2022/05/24 14:25:11;;;;;;;3.22;0.88;;;;;;;;;;4966810;28;20031;-76
2022/05/24 14:27:37;;;;;;;5.03;0.80;;;;;;;;;;4966856;28;20031;-75
2022/05/24 14:30:05;;;;;;;3.80;1.08;;;;;;;;;;4986360;28;20015;-76
2022/05/24 14:32:32;;;;;;;2.40;0.75;;;;;;;;;;4971384;28;20037;-76
2022/05/24 14:34:59;;;;;;;3.80;0.95;;;;;;;;;;4968892;28;20411;-76
2022/05/24 14:37:25;;;;;;;4.00;0.93;;;;;;;;;;4965030;28;20533;-76
2022/05/24 14:39:51;;;;;;;5.05;0.95;;;;;;;;;;4966425;28;20028;-75
2022/05/24 14:42:20;;;;;;;1.80;0.60;;;;;;;;;;4967856;28;20035;-75
2022/05/24 14:44:47;;;;;;;7.65;0.80;;;;;;;;;;4971465;28;20037;-75
2022/05/24 14:47:14;;;;;;;4.57;0.93;;;;;;;;;;4967598;28;20088;-75
2022/05/24 14:49:41;;;;;;;2.33;0.80;;;;;;;;;;4967047;28;20036;-75
2022/05/24 14:52:09;;;;;;;6.88;0.85;;;;;;;;;;4969228;28;20027;-75
2022/05/24 14:54:43;;;;;;;8.00;0.77;;;;;;;;;;4971437;28;20043;-75
2022/05/24 14:57:10;;;;;;;3.42;0.60;;;;;;;;;;4955836;28;20039;-74
2022/05/24 14:59:42;;;;;;;5.95;1.10;;;;;;;;;;4969116;28;20039;-76
2022/05/24 15:02:09;;;;;;;3.25;0.90;;;;;;;;;;4979963;28;20039;-75
2022/05/24 15:04:35;;;;;;;2.67;0.80;;;;;;;;;;4970508;28;20041;-76
2022/05/24 15:15:23;;;;;;;3.00;0.75;;;;;;;;;;4971425;28;20381;-76
2022/05/24 15:17:51;;;;;;;1.63;0.45;;;;;;;;;;4956493;28;20038;-75
2022/05/24 15:20:21;;;;;;;4.63;0.75;;;;;;;;;;4972536;28;20030;-75
2022/05/24 15:22:48;;;;;;;5.30;0.85;;;;;;;;;;4971886;28;20396;-75
2022/05/24 15:25:17;;;;;;;5.35;0.80;;;;;;;;;;4966025;28;20029;-75
2022/05/24 15:27:43;;;;;;;3.25;0.77;;;;;;;;;;4971533;28;20038;-74
2022/05/24 15:30:10;;;;;;;5.35;0.75;;;;;;;;;;4970900;28;20042;-75
2022/05/24 15:32:36;;;;;;;5.22;0.90;;;;;;;;;;4972015;28;20496;-75
2022/05/24 15:35:05;;;;;;;2.45;0.50;;;;;;;;;;4968500;28;20027;-75
2022/05/24 15:37:31;;;;;;;5.53;0.90;;;;;;;;;;4970277;28;20086;-74
2022/05/24 15:39:58;;;;;;;3.20;0.75;;;;;;;;;;4971979;28;20031;-75
2022/05/24 15:42:25;;;;;;;2.10;0.90;;;;;;;;;;4971470;28;20419;-75
2022/05/24 15:44:51;;;;;;;4.80;0.80;;;;;;;;;;4974969;28;20031;-75
2022/05/24 15:47:17;;;;;;;4.22;0.70;;;;;;;;;;4972459;28;20042;-75
2022/05/24 15:49:44;;;;;;;3.47;0.90;;;;;;;;;;4976427;28;20071;-75
2022/05/24 15:52:12;;;;;;;3.88;0.90;;;;;;;;;;4975543;28;20033;-75
2022/05/24 15:54:39;;;;;;;2.45;0.80;;;;;;;;;;4975851;28;20034;-75
2022/05/24 15:57:05;;;;;;;2.58;0.70;;;;;;;;;;4975498;28;20041;-75
2022/05/24 15:59:32;;;;;;;3.50;0.75;;;;;;;;;;4975399;28;20037;-76